sensor_id;sensor_type;location;lat;lon;timestamp;P1;durP1;ratioP1;P2;durP2;ratioP2
42906;SDS011;28552;51.146;6.576;2022-09-13T00:00:17;5.10;;;2.28;;
42906;SDS011;28552;51.146;6.576;2022-09-13T00:03:18;4.70;;;2.17;;
42906;SDS011;28552;51.146;6.576;2022-09-13T00:06:20;4.22;;;2.00;;
42906;SDS011;28552;51.146;6.576;2022-09-13T00:09:21;4.05;;;1.80;;
42906;SDS011;28552;51.146;6.576;2022-09-13T00:12:22;4.97;;;2.05;;
42906;SDS011;28552;51.146;6.576;2022-09-13T00:15:22;5.97;;;1.77;;
42906;SDS011;28552;51.146;6.576;2022-09-13T00:18:23;4.18;;;1.80;;
42906;SDS011;28552;51.146;6.576;2022-09-13T00:21:24;5.38;;;1.80;;
42906;SDS011;28552;51.146;6.576;2022-09-13T00:24:24;5.15;;;1.85;;
42906;SDS011;28552;51.146;6.576;2022-09-13T00:27:25;5.03;;;1.90;;
42906;SDS011;28552;51.146;6.576;2022-09-13T00:30:25;3.58;;;1.35;;
42906;SDS011;28552;51.146;6.576;2022-09-13T00:33:26;3.67;;;1.60;;
42906;SDS011;28552;51.146;6.576;2022-09-13T00:36:27;4.38;;;1.80;;
42906;SDS011;28552;51.146;6.576;2022-09-13T00:39:28;4.35;;;1.63;;
42906;SDS011;28552;51.146;6.576;2022-09-13T00:42:28;5.00;;;2.25;;
42906;SDS011;28552;51.146;6.576;2022-09-13T00:45:32;7.32;;;1.88;;
42906;SDS011;28552;51.146;6.576;2022-09-13T00:48:32;3.25;;;1.17;;
42906;SDS011;28552;51.146;6.576;2022-09-13T00:51:35;4.97;;;1.75;;
42906;SDS011;28552;51.146;6.576;2022-09-13T00:54:38;2.90;;;1.30;;
42906;SDS011;28552;51.146;6.576;2022-09-13T00:57:44;3.38;;;1.65;;
42906;SDS011;28552;51.146;6.576;2022-09-13T01:00:45;3.13;;;1.30;;
42906;SDS011;28552;51.146;6.576;2022-09-13T01:03:47;2.80;;;1.33;;
42906;SDS011;28552;51.146;6.576;2022-09-13T01:06:48;4.30;;;1.60;;
42906;SDS011;28552;51.146;6.576;2022-09-13T01:09:51;6.95;;;1.55;;
42906;SDS011;28552;51.146;6.576;2022-09-13T01:12:54;4.03;;;1.70;;
42906;SDS011;28552;51.146;6.576;2022-09-13T01:16:05;3.83;;;1.27;;
42906;SDS011;28552;51.146;6.576;2022-09-13T01:19:06;6.93;;;1.95;;
42906;SDS011;28552;51.146;6.576;2022-09-13T01:41:58;5.88;;;1.52;;
42906;SDS011;28552;51.146;6.576;2022-09-13T01:45:08;6.00;;;1.80;;
42906;SDS011;28552;51.146;6.576;2022-09-13T01:48:15;3.25;;;1.40;;
42906;SDS011;28552;51.146;6.576;2022-09-13T01:51:27;5.00;;;1.75;;
42906;SDS011;28552;51.146;6.576;2022-09-13T01:57:41;4.00;;;1.60;;
42906;SDS011;28552;51.146;6.576;2022-09-13T02:00:57;3.58;;;1.23;;
42906;SDS011;28552;51.146;6.576;2022-09-13T02:04:09;3.15;;;1.45;;
42906;SDS011;28552;51.146;6.576;2022-09-13T02:07:16;5.20;;;1.58;;
42906;SDS011;28552;51.146;6.576;2022-09-13T02:10:25;2.65;;;1.10;;
42906;SDS011;28552;51.146;6.576;2022-09-13T02:13:31;3.88;;;1.42;;
42906;SDS011;28552;51.146;6.576;2022-09-13T02:16:37;3.17;;;1.48;;
42906;SDS011;28552;51.146;6.576;2022-09-13T02:19:48;3.15;;;1.13;;
42906;SDS011;28552;51.146;6.576;2022-09-13T02:23:02;3.30;;;1.50;;
42906;SDS011;28552;51.146;6.576;2022-09-13T02:26:09;4.55;;;1.45;;
42906;SDS011;28552;51.146;6.576;2022-09-13T02:29:13;3.15;;;1.52;;
42906;SDS011;28552;51.146;6.576;2022-09-13T02:32:21;2.97;;;1.40;;
42906;SDS011;28552;51.146;6.576;2022-09-13T02:35:26;3.13;;;1.30;;
42906;SDS011;28552;51.146;6.576;2022-09-13T02:38:34;2.92;;;1.40;;
42906;SDS011;28552;51.146;6.576;2022-09-13T02:45:00;2.95;;;1.10;;
42906;SDS011;28552;51.146;6.576;2022-09-13T02:48:03;7.20;;;1.75;;
42906;SDS011;28552;51.146;6.576;2022-09-13T02:52:11;3.75;;;1.25;;
42906;SDS011;28552;51.146;6.576;2022-09-13T02:58:18;3.95;;;1.52;;
42906;SDS011;28552;51.146;6.576;2022-09-13T03:01:20;2.53;;;1.23;;
42906;SDS011;28552;51.146;6.576;2022-09-13T03:04:21;3.33;;;1.25;;
42906;SDS011;28552;51.146;6.576;2022-09-13T03:07:21;4.65;;;1.45;;
42906;SDS011;28552;51.146;6.576;2022-09-13T03:10:22;4.25;;;1.42;;
42906;SDS011;28552;51.146;6.576;2022-09-13T03:13:31;3.08;;;1.30;;
42906;SDS011;28552;51.146;6.576;2022-09-13T03:16:47;5.47;;;1.58;;
42906;SDS011;28552;51.146;6.576;2022-09-13T03:20:07;3.83;;;1.77;;
42906;SDS011;28552;51.146;6.576;2022-09-13T03:23:22;3.17;;;1.50;;
42906;SDS011;28552;51.146;6.576;2022-09-13T03:26:41;4.50;;;1.98;;
42906;SDS011;28552;51.146;6.576;2022-09-13T03:30:07;4.30;;;1.55;;
42906;SDS011;28552;51.146;6.576;2022-09-13T03:33:15;2.90;;;1.23;;
42906;SDS011;28552;51.146;6.576;2022-09-13T03:36:24;5.82;;;1.80;;
42906;SDS011;28552;51.146;6.576;2022-09-13T03:39:34;3.07;;;1.33;;
42906;SDS011;28552;51.146;6.576;2022-09-13T03:42:45;4.20;;;1.60;;
42906;SDS011;28552;51.146;6.576;2022-09-13T03:48:53;6.03;;;1.90;;
42906;SDS011;28552;51.146;6.576;2022-09-13T03:51:55;3.95;;;1.42;;
42906;SDS011;28552;51.146;6.576;2022-09-13T03:54:57;5.63;;;2.05;;
42906;SDS011;28552;51.146;6.576;2022-09-13T03:57:58;3.92;;;1.80;;
42906;SDS011;28552;51.146;6.576;2022-09-13T04:00:58;4.47;;;1.70;;
42906;SDS011;28552;51.146;6.576;2022-09-13T04:03:58;3.67;;;1.55;;
42906;SDS011;28552;51.146;6.576;2022-09-13T04:06:59;3.60;;;1.75;;
42906;SDS011;28552;51.146;6.576;2022-09-13T04:10:03;4.40;;;1.65;;
42906;SDS011;28552;51.146;6.576;2022-09-13T04:13:04;4.85;;;2.10;;
42906;SDS011;28552;51.146;6.576;2022-09-13T04:16:05;4.45;;;1.90;;
42906;SDS011;28552;51.146;6.576;2022-09-13T04:19:06;4.65;;;1.73;;
42906;SDS011;28552;51.146;6.576;2022-09-13T04:22:07;7.75;;;1.80;;
42906;SDS011;28552;51.146;6.576;2022-09-13T04:25:07;5.95;;;2.33;;
42906;SDS011;28552;51.146;6.576;2022-09-13T04:28:08;4.28;;;1.55;;
42906;SDS011;28552;51.146;6.576;2022-09-13T04:31:08;5.70;;;2.00;;
42906;SDS011;28552;51.146;6.576;2022-09-13T04:34:09;4.88;;;1.95;;
42906;SDS011;28552;51.146;6.576;2022-09-13T04:37:09;5.20;;;2.00;;
42906;SDS011;28552;51.146;6.576;2022-09-13T04:40:10;4.35;;;1.80;;
42906;SDS011;28552;51.146;6.576;2022-09-13T04:43:12;3.70;;;1.77;;
42906;SDS011;28552;51.146;6.576;2022-09-13T04:46:12;4.72;;;1.80;;
42906;SDS011;28552;51.146;6.576;2022-09-13T04:49:13;4.10;;;1.40;;
42906;SDS011;28552;51.146;6.576;2022-09-13T04:52:14;3.97;;;1.63;;
42906;SDS011;28552;51.146;6.576;2022-09-13T04:55:15;4.25;;;1.40;;
42906;SDS011;28552;51.146;6.576;2022-09-13T04:58:15;4.07;;;1.50;;
42906;SDS011;28552;51.146;6.576;2022-09-13T05:01:16;5.07;;;2.15;;
42906;SDS011;28552;51.146;6.576;2022-09-13T05:04:17;5.68;;;1.85;;
42906;SDS011;28552;51.146;6.576;2022-09-13T05:07:18;3.80;;;1.55;;
42906;SDS011;28552;51.146;6.576;2022-09-13T05:10:18;5.07;;;1.70;;
42906;SDS011;28552;51.146;6.576;2022-09-13T05:13:19;4.45;;;1.60;;
42906;SDS011;28552;51.146;6.576;2022-09-13T05:16:20;4.43;;;2.10;;
42906;SDS011;28552;51.146;6.576;2022-09-13T05:19:22;5.38;;;2.20;;
42906;SDS011;28552;51.146;6.576;2022-09-13T05:22:23;4.32;;;2.10;;
42906;SDS011;28552;51.146;6.576;2022-09-13T05:25:23;5.38;;;1.52;;
42906;SDS011;28552;51.146;6.576;2022-09-13T05:28:25;4.32;;;1.77;;
42906;SDS011;28552;51.146;6.576;2022-09-13T05:31:29;3.45;;;1.65;;
42906;SDS011;28552;51.146;6.576;2022-09-13T05:34:31;4.72;;;1.98;;
42906;SDS011;28552;51.146;6.576;2022-09-13T05:37:32;4.28;;;1.60;;
42906;SDS011;28552;51.146;6.576;2022-09-13T05:40:33;8.05;;;1.83;;
42906;SDS011;28552;51.146;6.576;2022-09-13T05:43:34;3.63;;;1.67;;
42906;SDS011;28552;51.146;6.576;2022-09-13T05:46:35;4.60;;;1.67;;
42906;SDS011;28552;51.146;6.576;2022-09-13T05:49:36;4.82;;;1.92;;
42906;SDS011;28552;51.146;6.576;2022-09-13T05:52:36;6.43;;;1.92;;
42906;SDS011;28552;51.146;6.576;2022-09-13T05:55:37;4.07;;;1.58;;
42906;SDS011;28552;51.146;6.576;2022-09-13T05:58:37;5.63;;;1.95;;
42906;SDS011;28552;51.146;6.576;2022-09-13T06:01:39;5.03;;;1.85;;
42906;SDS011;28552;51.146;6.576;2022-09-13T06:04:40;5.72;;;1.88;;
42906;SDS011;28552;51.146;6.576;2022-09-13T06:07:41;6.38;;;1.98;;
42906;SDS011;28552;51.146;6.576;2022-09-13T06:10:41;7.13;;;2.20;;
42906;SDS011;28552;51.146;6.576;2022-09-13T06:13:42;4.15;;;1.88;;
42906;SDS011;28552;51.146;6.576;2022-09-13T06:16:43;7.18;;;2.13;;
42906;SDS011;28552;51.146;6.576;2022-09-13T06:19:43;7.00;;;2.08;;
42906;SDS011;28552;51.146;6.576;2022-09-13T06:22:45;4.25;;;1.60;;
42906;SDS011;28552;51.146;6.576;2022-09-13T06:25:46;4.03;;;1.90;;
42906;SDS011;28552;51.146;6.576;2022-09-13T06:28:47;6.75;;;2.08;;
42906;SDS011;28552;51.146;6.576;2022-09-13T06:31:50;4.15;;;2.13;;
42906;SDS011;28552;51.146;6.576;2022-09-13T06:34:50;5.45;;;2.00;;
42906;SDS011;28552;51.146;6.576;2022-09-13T06:37:53;4.72;;;2.13;;
42906;SDS011;28552;51.146;6.576;2022-09-13T06:41:04;4.80;;;2.20;;
42906;SDS011;28552;51.146;6.576;2022-09-13T06:44:09;4.57;;;1.90;;
42906;SDS011;28552;51.146;6.576;2022-09-13T06:47:10;4.32;;;1.77;;
42906;SDS011;28552;51.146;6.576;2022-09-13T06:50:11;4.32;;;1.90;;
42906;SDS011;28552;51.146;6.576;2022-09-13T06:53:12;3.80;;;1.90;;
42906;SDS011;28552;51.146;6.576;2022-09-13T06:56:14;5.55;;;2.03;;
42906;SDS011;28552;51.146;6.576;2022-09-13T06:59:19;5.00;;;2.35;;
42906;SDS011;28552;51.146;6.576;2022-09-13T07:02:20;4.85;;;2.13;;
42906;SDS011;28552;51.146;6.576;2022-09-13T07:05:21;4.80;;;1.90;;
42906;SDS011;28552;51.146;6.576;2022-09-13T07:08:21;6.68;;;1.95;;
42906;SDS011;28552;51.146;6.576;2022-09-13T07:11:22;6.47;;;1.85;;
42906;SDS011;28552;51.146;6.576;2022-09-13T07:14:26;3.47;;;1.63;;
42906;SDS011;28552;51.146;6.576;2022-09-13T07:17:28;5.18;;;1.55;;
42906;SDS011;28552;51.146;6.576;2022-09-13T07:20:28;6.55;;;2.03;;
42906;SDS011;28552;51.146;6.576;2022-09-13T07:23:29;4.53;;;1.60;;
42906;SDS011;28552;51.146;6.576;2022-09-13T07:26:31;7.05;;;1.95;;
42906;SDS011;28552;51.146;6.576;2022-09-13T07:29:32;7.40;;;1.98;;
42906;SDS011;28552;51.146;6.576;2022-09-13T07:32:32;4.93;;;1.92;;
42906;SDS011;28552;51.146;6.576;2022-09-13T07:35:33;5.18;;;1.80;;
42906;SDS011;28552;51.146;6.576;2022-09-13T07:38:34;4.50;;;1.95;;
42906;SDS011;28552;51.146;6.576;2022-09-13T07:41:35;5.97;;;1.90;;
42906;SDS011;28552;51.146;6.576;2022-09-13T07:44:36;6.53;;;1.88;;
42906;SDS011;28552;51.146;6.576;2022-09-13T07:47:36;4.22;;;1.60;;
42906;SDS011;28552;51.146;6.576;2022-09-13T07:50:37;4.07;;;1.90;;
42906;SDS011;28552;51.146;6.576;2022-09-13T07:53:38;5.60;;;1.83;;
42906;SDS011;28552;51.146;6.576;2022-09-13T07:56:39;5.78;;;1.70;;
42906;SDS011;28552;51.146;6.576;2022-09-13T07:59:41;4.85;;;2.17;;
42906;SDS011;28552;51.146;6.576;2022-09-13T08:02:41;7.15;;;2.22;;
42906;SDS011;28552;51.146;6.576;2022-09-13T08:05:42;4.43;;;1.92;;
42906;SDS011;28552;51.146;6.576;2022-09-13T08:08:42;9.20;;;1.75;;
42906;SDS011;28552;51.146;6.576;2022-09-13T08:11:44;4.30;;;1.55;;
42906;SDS011;28552;51.146;6.576;2022-09-13T08:14:47;6.13;;;1.70;;
42906;SDS011;28552;51.146;6.576;2022-09-13T08:17:47;7.82;;;1.40;;
42906;SDS011;28552;51.146;6.576;2022-09-13T08:20:48;5.05;;;1.77;;
42906;SDS011;28552;51.146;6.576;2022-09-13T08:23:48;6.63;;;1.98;;
42906;SDS011;28552;51.146;6.576;2022-09-13T08:26:53;6.43;;;1.75;;
42906;SDS011;28552;51.146;6.576;2022-09-13T08:29:54;3.80;;;1.45;;
42906;SDS011;28552;51.146;6.576;2022-09-13T08:32:54;4.38;;;1.90;;
42906;SDS011;28552;51.146;6.576;2022-09-13T08:35:55;4.05;;;1.83;;
42906;SDS011;28552;51.146;6.576;2022-09-13T08:38:58;5.18;;;1.77;;
42906;SDS011;28552;51.146;6.576;2022-09-13T08:45:06;5.28;;;2.05;;
42906;SDS011;28552;51.146;6.576;2022-09-13T08:48:10;4.05;;;1.45;;
42906;SDS011;28552;51.146;6.576;2022-09-13T08:51:23;4.38;;;1.95;;
42906;SDS011;28552;51.146;6.576;2022-09-13T08:54:40;5.75;;;2.08;;
42906;SDS011;28552;51.146;6.576;2022-09-13T08:57:47;4.00;;;1.60;;
42906;SDS011;28552;51.146;6.576;2022-09-13T09:04:36;5.00;;;2.00;;
42906;SDS011;28552;51.146;6.576;2022-09-13T09:07:47;5.20;;;1.58;;
42906;SDS011;28552;51.146;6.576;2022-09-13T09:10:57;5.70;;;2.10;;
42906;SDS011;28552;51.146;6.576;2022-09-13T09:17:16;4.88;;;2.47;;
42906;SDS011;28552;51.146;6.576;2022-09-13T09:20:23;5.13;;;1.80;;
42906;SDS011;28552;51.146;6.576;2022-09-13T09:23:40;6.63;;;2.45;;
42906;SDS011;28552;51.146;6.576;2022-09-13T09:26:51;4.05;;;1.92;;
42906;SDS011;28552;51.146;6.576;2022-09-13T09:29:55;7.80;;;1.83;;
42906;SDS011;28552;51.146;6.576;2022-09-13T09:36:19;9.05;;;1.98;;
42906;SDS011;28552;51.146;6.576;2022-09-13T09:39:28;5.47;;;2.47;;
42906;SDS011;28552;51.146;6.576;2022-09-13T09:42:36;5.55;;;2.20;;
42906;SDS011;28552;51.146;6.576;2022-09-13T09:45:40;5.88;;;2.25;;
42906;SDS011;28552;51.146;6.576;2022-09-13T09:48:44;5.05;;;2.10;;
42906;SDS011;28552;51.146;6.576;2022-09-13T09:51:50;6.40;;;1.95;;
42906;SDS011;28552;51.146;6.576;2022-09-13T09:54:52;7.53;;;2.30;;
42906;SDS011;28552;51.146;6.576;2022-09-13T09:57:58;4.55;;;1.90;;
42906;SDS011;28552;51.146;6.576;2022-09-13T10:00:59;5.15;;;2.28;;
42906;SDS011;28552;51.146;6.576;2022-09-13T10:07:23;5.20;;;2.22;;
42906;SDS011;28552;51.146;6.576;2022-09-13T10:10:35;6.50;;;2.72;;
42906;SDS011;28552;51.146;6.576;2022-09-13T10:13:36;10.75;;;2.28;;
42906;SDS011;28552;51.146;6.576;2022-09-13T10:16:37;8.48;;;2.75;;
42906;SDS011;28552;51.146;6.576;2022-09-13T10:19:38;7.43;;;2.47;;
42906;SDS011;28552;51.146;6.576;2022-09-13T10:22:39;7.38;;;2.97;;
42906;SDS011;28552;51.146;6.576;2022-09-13T10:25:42;4.75;;;2.17;;
42906;SDS011;28552;51.146;6.576;2022-09-13T10:28:57;6.38;;;2.78;;
42906;SDS011;28552;51.146;6.576;2022-09-13T10:32:07;4.75;;;2.13;;
42906;SDS011;28552;51.146;6.576;2022-09-13T10:35:15;6.97;;;2.50;;
42906;SDS011;28552;51.146;6.576;2022-09-13T10:38:21;5.18;;;2.40;;
42906;SDS011;28552;51.146;6.576;2022-09-13T10:41:32;5.72;;;2.45;;
42906;SDS011;28552;51.146;6.576;2022-09-13T10:47:42;4.72;;;2.33;;
42906;SDS011;28552;51.146;6.576;2022-09-13T11:00:38;4.68;;;1.80;;
42906;SDS011;28552;51.146;6.576;2022-09-13T11:07:09;5.20;;;2.50;;
42906;SDS011;28552;51.146;6.576;2022-09-13T11:13:50;4.22;;;2.00;;
42906;SDS011;28552;51.146;6.576;2022-09-13T11:17:13;5.95;;;1.70;;
42906;SDS011;28552;51.146;6.576;2022-09-13T11:30:45;7.15;;;2.47;;
42906;SDS011;28552;51.146;6.576;2022-09-13T11:40:49;5.63;;;2.30;;
42906;SDS011;28552;51.146;6.576;2022-09-13T11:54:27;5.28;;;1.80;;
42906;SDS011;28552;51.146;6.576;2022-09-13T11:57:46;5.75;;;2.20;;
42906;SDS011;28552;51.146;6.576;2022-09-13T12:00:53;5.75;;;2.20;;
42906;SDS011;28552;51.146;6.576;2022-09-13T12:03:59;6.90;;;2.53;;
42906;SDS011;28552;51.146;6.576;2022-09-13T12:07:02;4.18;;;1.88;;
42906;SDS011;28552;51.146;6.576;2022-09-13T12:10:13;4.53;;;2.17;;
42906;SDS011;28552;51.146;6.576;2022-09-13T12:13:24;5.07;;;2.00;;
42906;SDS011;28552;51.146;6.576;2022-09-13T12:19:39;4.75;;;2.10;;
42906;SDS011;28552;51.146;6.576;2022-09-13T12:22:44;5.85;;;2.17;;
42906;SDS011;28552;51.146;6.576;2022-09-13T12:25:49;4.65;;;2.00;;
42906;SDS011;28552;51.146;6.576;2022-09-13T12:29:04;6.30;;;2.10;;
42906;SDS011;28552;51.146;6.576;2022-09-13T12:32:12;4.32;;;1.90;;
42906;SDS011;28552;51.146;6.576;2022-09-13T12:38:36;4.68;;;2.00;;
42906;SDS011;28552;51.146;6.576;2022-09-13T12:45:15;5.13;;;2.00;;
42906;SDS011;28552;51.146;6.576;2022-09-13T12:55:14;4.78;;;2.20;;
42906;SDS011;28552;51.146;6.576;2022-09-13T12:58:39;4.10;;;1.80;;
42906;SDS011;28552;51.146;6.576;2022-09-13T13:01:54;4.00;;;1.63;;
42906;SDS011;28552;51.146;6.576;2022-09-13T13:04:59;4.95;;;1.85;;
42906;SDS011;28552;51.146;6.576;2022-09-13T13:08:06;3.47;;;1.50;;
42906;SDS011;28552;51.146;6.576;2022-09-13T13:11:26;4.30;;;1.67;;
42906;SDS011;28552;51.146;6.576;2022-09-13T13:14:45;3.83;;;1.63;;
42906;SDS011;28552;51.146;6.576;2022-09-13T13:17:49;4.22;;;1.58;;
42906;SDS011;28552;51.146;6.576;2022-09-13T13:27:33;4.03;;;1.83;;
42906;SDS011;28552;51.146;6.576;2022-09-13T13:33:47;3.72;;;1.77;;
42906;SDS011;28552;51.146;6.576;2022-09-13T13:40:11;4.43;;;1.77;;
42906;SDS011;28552;51.146;6.576;2022-09-13T13:46:36;4.18;;;1.90;;
42906;SDS011;28552;51.146;6.576;2022-09-13T13:52:39;4.25;;;1.50;;
42906;SDS011;28552;51.146;6.576;2022-09-13T13:56:05;3.45;;;1.67;;
42906;SDS011;28552;51.146;6.576;2022-09-13T13:59:17;3.95;;;1.70;;
42906;SDS011;28552;51.146;6.576;2022-09-13T14:02:28;4.63;;;1.52;;
42906;SDS011;28552;51.146;6.576;2022-09-13T14:08:51;4.45;;;1.77;;
42906;SDS011;28552;51.146;6.576;2022-09-13T14:15:15;3.80;;;1.52;;
42906;SDS011;28552;51.146;6.576;2022-09-13T14:18:35;3.42;;;1.70;;
42906;SDS011;28552;51.146;6.576;2022-09-13T14:22:24;4.60;;;1.98;;
42906;SDS011;28552;51.146;6.576;2022-09-13T14:28:24;3.10;;;1.43;;
42906;SDS011;28552;51.146;6.576;2022-09-13T14:31:25;4.20;;;1.67;;
42906;SDS011;28552;51.146;6.576;2022-09-13T14:34:26;5.43;;;1.80;;
42906;SDS011;28552;51.146;6.576;2022-09-13T14:37:31;4.13;;;1.67;;
42906;SDS011;28552;51.146;6.576;2022-09-13T14:40:34;3.33;;;1.50;;
42906;SDS011;28552;51.146;6.576;2022-09-13T14:43:34;4.32;;;1.77;;
42906;SDS011;28552;51.146;6.576;2022-09-13T14:46:36;4.38;;;2.05;;
42906;SDS011;28552;51.146;6.576;2022-09-13T14:49:40;3.83;;;1.70;;
42906;SDS011;28552;51.146;6.576;2022-09-13T14:55:59;4.43;;;1.70;;
42906;SDS011;28552;51.146;6.576;2022-09-13T14:59:05;3.75;;;2.10;;
42906;SDS011;28552;51.146;6.576;2022-09-13T15:02:18;3.63;;;1.67;;
42906;SDS011;28552;51.146;6.576;2022-09-13T15:05:24;3.97;;;1.80;;
42906;SDS011;28552;51.146;6.576;2022-09-13T15:11:55;3.70;;;1.70;;
42906;SDS011;28552;51.146;6.576;2022-09-13T15:18:24;4.30;;;1.73;;
42906;SDS011;28552;51.146;6.576;2022-09-13T15:21:30;5.72;;;2.15;;
42906;SDS011;28552;51.146;6.576;2022-09-13T15:24:35;3.33;;;1.42;;
42906;SDS011;28552;51.146;6.576;2022-09-13T15:27:42;4.72;;;1.90;;
42906;SDS011;28552;51.146;6.576;2022-09-13T15:30:44;4.75;;;2.05;;
42906;SDS011;28552;51.146;6.576;2022-09-13T15:33:45;4.20;;;1.83;;
42906;SDS011;28552;51.146;6.576;2022-09-13T15:36:46;6.20;;;2.20;;
42906;SDS011;28552;51.146;6.576;2022-09-13T15:39:48;3.88;;;1.80;;
42906;SDS011;28552;51.146;6.576;2022-09-13T15:43:00;4.82;;;2.13;;
42906;SDS011;28552;51.146;6.576;2022-09-13T15:46:01;3.28;;;1.83;;
42906;SDS011;28552;51.146;6.576;2022-09-13T15:49:02;4.72;;;2.10;;
42906;SDS011;28552;51.146;6.576;2022-09-13T15:52:04;4.22;;;2.00;;
42906;SDS011;28552;51.146;6.576;2022-09-13T15:55:09;4.30;;;1.77;;
42906;SDS011;28552;51.146;6.576;2022-09-13T15:58:10;3.70;;;1.83;;
42906;SDS011;28552;51.146;6.576;2022-09-13T16:01:11;3.75;;;1.60;;
42906;SDS011;28552;51.146;6.576;2022-09-13T16:04:12;3.97;;;1.77;;
42906;SDS011;28552;51.146;6.576;2022-09-13T16:07:13;4.90;;;2.00;;
42906;SDS011;28552;51.146;6.576;2022-09-13T16:10:15;3.72;;;1.90;;
42906;SDS011;28552;51.146;6.576;2022-09-13T16:13:19;3.60;;;1.70;;
42906;SDS011;28552;51.146;6.576;2022-09-13T16:16:20;3.95;;;1.80;;
42906;SDS011;28552;51.146;6.576;2022-09-13T16:19:21;4.28;;;1.92;;
42906;SDS011;28552;51.146;6.576;2022-09-13T16:22:22;4.75;;;2.20;;
42906;SDS011;28552;51.146;6.576;2022-09-13T16:25:22;4.78;;;2.00;;
42906;SDS011;28552;51.146;6.576;2022-09-13T16:28:23;3.75;;;1.65;;
42906;SDS011;28552;51.146;6.576;2022-09-13T16:31:24;3.83;;;2.00;;
42906;SDS011;28552;51.146;6.576;2022-09-13T16:34:25;4.40;;;2.00;;
42906;SDS011;28552;51.146;6.576;2022-09-13T16:37:26;4.25;;;2.35;;
42906;SDS011;28552;51.146;6.576;2022-09-13T16:40:26;3.72;;;1.98;;
42906;SDS011;28552;51.146;6.576;2022-09-13T16:43:27;5.25;;;2.10;;
42906;SDS011;28552;51.146;6.576;2022-09-13T16:46:27;5.68;;;2.17;;
42906;SDS011;28552;51.146;6.576;2022-09-13T16:49:29;4.53;;;2.05;;
42906;SDS011;28552;51.146;6.576;2022-09-13T16:52:30;5.25;;;2.45;;
42906;SDS011;28552;51.146;6.576;2022-09-13T16:55:31;8.00;;;2.80;;
42906;SDS011;28552;51.146;6.576;2022-09-13T16:58:34;7.55;;;2.72;;
42906;SDS011;28552;51.146;6.576;2022-09-13T17:01:36;5.72;;;2.72;;
42906;SDS011;28552;51.146;6.576;2022-09-13T17:04:37;7.78;;;2.35;;
42906;SDS011;28552;51.146;6.576;2022-09-13T17:07:38;6.50;;;2.60;;
42906;SDS011;28552;51.146;6.576;2022-09-13T17:10:38;9.63;;;3.15;;
42906;SDS011;28552;51.146;6.576;2022-09-13T17:13:39;5.38;;;2.70;;
42906;SDS011;28552;51.146;6.576;2022-09-13T17:16:42;6.65;;;3.00;;
42906;SDS011;28552;51.146;6.576;2022-09-13T17:19:44;5.72;;;3.05;;
42906;SDS011;28552;51.146;6.576;2022-09-13T17:22:45;5.78;;;3.20;;
42906;SDS011;28552;51.146;6.576;2022-09-13T17:25:46;5.50;;;2.75;;
42906;SDS011;28552;51.146;6.576;2022-09-13T17:28:48;6.05;;;3.33;;
42906;SDS011;28552;51.146;6.576;2022-09-13T17:31:48;5.93;;;3.20;;
42906;SDS011;28552;51.146;6.576;2022-09-13T17:34:51;5.93;;;3.03;;
42906;SDS011;28552;51.146;6.576;2022-09-13T17:37:51;5.43;;;2.78;;
42906;SDS011;28552;51.146;6.576;2022-09-13T17:41:00;6.65;;;3.00;;
42906;SDS011;28552;51.146;6.576;2022-09-13T17:44:02;6.10;;;3.22;;
42906;SDS011;28552;51.146;6.576;2022-09-13T17:47:02;6.65;;;3.40;;
42906;SDS011;28552;51.146;6.576;2022-09-13T17:50:05;6.32;;;2.88;;
42906;SDS011;28552;51.146;6.576;2022-09-13T17:53:06;9.13;;;3.38;;
42906;SDS011;28552;51.146;6.576;2022-09-13T17:56:07;7.97;;;3.67;;
42906;SDS011;28552;51.146;6.576;2022-09-13T17:59:09;6.47;;;3.22;;
42906;SDS011;28552;51.146;6.576;2022-09-13T18:02:12;7.43;;;3.83;;
42906;SDS011;28552;51.146;6.576;2022-09-13T18:05:12;7.28;;;3.58;;
42906;SDS011;28552;51.146;6.576;2022-09-13T18:08:13;9.52;;;3.97;;
42906;SDS011;28552;51.146;6.576;2022-09-13T18:11:14;10.80;;;4.93;;
42906;SDS011;28552;51.146;6.576;2022-09-13T18:14:17;10.10;;;4.38;;
42906;SDS011;28552;51.146;6.576;2022-09-13T18:17:18;11.63;;;5.40;;
42906;SDS011;28552;51.146;6.576;2022-09-13T18:20:19;9.70;;;5.05;;
42906;SDS011;28552;51.146;6.576;2022-09-13T18:23:19;11.15;;;6.50;;
42906;SDS011;28552;51.146;6.576;2022-09-13T18:26:21;10.55;;;5.85;;
42906;SDS011;28552;51.146;6.576;2022-09-13T18:29:22;10.82;;;5.40;;
42906;SDS011;28552;51.146;6.576;2022-09-13T18:32:22;9.90;;;5.55;;
42906;SDS011;28552;51.146;6.576;2022-09-13T18:35:23;9.93;;;5.20;;
42906;SDS011;28552;51.146;6.576;2022-09-13T18:38:25;12.02;;;5.68;;
42906;SDS011;28552;51.146;6.576;2022-09-13T18:41:28;10.27;;;5.35;;
42906;SDS011;28552;51.146;6.576;2022-09-13T18:44:31;11.18;;;5.53;;
42906;SDS011;28552;51.146;6.576;2022-09-13T18:47:32;10.43;;;5.38;;
42906;SDS011;28552;51.146;6.576;2022-09-13T18:50:33;7.47;;;4.32;;
42906;SDS011;28552;51.146;6.576;2022-09-13T18:53:34;10.95;;;4.78;;
42906;SDS011;28552;51.146;6.576;2022-09-13T18:56:35;11.65;;;5.35;;
42906;SDS011;28552;51.146;6.576;2022-09-13T18:59:35;11.05;;;5.07;;
42906;SDS011;28552;51.146;6.576;2022-09-13T19:02:36;8.77;;;4.18;;
42906;SDS011;28552;51.146;6.576;2022-09-13T19:05:37;8.98;;;4.80;;
42906;SDS011;28552;51.146;6.576;2022-09-13T19:08:38;9.05;;;4.43;;
42906;SDS011;28552;51.146;6.576;2022-09-13T19:11:40;9.32;;;4.60;;
42906;SDS011;28552;51.146;6.576;2022-09-13T19:14:43;8.85;;;4.82;;
42906;SDS011;28552;51.146;6.576;2022-09-13T19:17:44;10.90;;;5.10;;
42906;SDS011;28552;51.146;6.576;2022-09-13T19:20:45;9.98;;;4.55;;
42906;SDS011;28552;51.146;6.576;2022-09-13T19:23:47;9.77;;;4.93;;
42906;SDS011;28552;51.146;6.576;2022-09-13T19:26:49;10.82;;;3.88;;
42906;SDS011;28552;51.146;6.576;2022-09-13T19:29:51;7.70;;;4.65;;
42906;SDS011;28552;51.146;6.576;2022-09-13T19:32:52;9.57;;;4.60;;
42906;SDS011;28552;51.146;6.576;2022-09-13T19:35:53;8.23;;;4.78;;
42906;SDS011;28552;51.146;6.576;2022-09-13T19:38:55;8.35;;;4.40;;
42906;SDS011;28552;51.146;6.576;2022-09-13T19:41:58;8.60;;;4.55;;
42906;SDS011;28552;51.146;6.576;2022-09-13T19:44:59;10.35;;;5.50;;
42906;SDS011;28552;51.146;6.576;2022-09-13T19:48:00;10.07;;;4.72;;
42906;SDS011;28552;51.146;6.576;2022-09-13T19:51:01;8.43;;;4.25;;
42906;SDS011;28552;51.146;6.576;2022-09-13T19:54:05;11.95;;;5.18;;
42906;SDS011;28552;51.146;6.576;2022-09-13T19:57:06;12.38;;;5.18;;
42906;SDS011;28552;51.146;6.576;2022-09-13T20:00:08;10.43;;;4.97;;
42906;SDS011;28552;51.146;6.576;2022-09-13T20:03:09;11.95;;;5.13;;
42906;SDS011;28552;51.146;6.576;2022-09-13T20:06:11;9.82;;;5.60;;
42906;SDS011;28552;51.146;6.576;2022-09-13T20:09:13;10.10;;;5.32;;
42906;SDS011;28552;51.146;6.576;2022-09-13T20:12:16;11.02;;;5.18;;
42906;SDS011;28552;51.146;6.576;2022-09-13T20:15:18;10.70;;;5.25;;
42906;SDS011;28552;51.146;6.576;2022-09-13T20:18:19;10.85;;;5.40;;
42906;SDS011;28552;51.146;6.576;2022-09-13T20:21:20;11.27;;;5.95;;
42906;SDS011;28552;51.146;6.576;2022-09-13T20:24:20;12.40;;;5.47;;
42906;SDS011;28552;51.146;6.576;2022-09-13T20:27:21;10.68;;;6.15;;
42906;SDS011;28552;51.146;6.576;2022-09-13T20:30:21;11.90;;;5.82;;
42906;SDS011;28552;51.146;6.576;2022-09-13T20:33:22;14.70;;;6.88;;
42906;SDS011;28552;51.146;6.576;2022-09-13T20:36:23;12.70;;;6.15;;
42906;SDS011;28552;51.146;6.576;2022-09-13T20:39:24;11.55;;;6.00;;
42906;SDS011;28552;51.146;6.576;2022-09-13T20:42:25;14.45;;;7.13;;
42906;SDS011;28552;51.146;6.576;2022-09-13T20:45:25;12.10;;;6.43;;
42906;SDS011;28552;51.146;6.576;2022-09-13T20:48:26;13.20;;;6.63;;
42906;SDS011;28552;51.146;6.576;2022-09-13T20:51:26;14.82;;;6.97;;
42906;SDS011;28552;51.146;6.576;2022-09-13T20:54:27;14.65;;;7.30;;
42906;SDS011;28552;51.146;6.576;2022-09-13T20:57:28;15.73;;;7.72;;